Time;durP1;ratioP1;P1;durP2;ratioP2;P2;SDS_P1;SDS_P2;PMS_P1;PMS_P2;Temp;Humidity;BMP_temperature;BMP_pressure;BME280_temperature;BME280_humidity;BME280_pressure;Samples;Min_cycle;Max_cycle;Signal;HPM_P1;HPM_P2
2023/06/22 00:01:18;;;;;;;4.60;2.90;;;17.10;99.90;;;;;;6153406;23;20317;-82
2023/06/22 00:03:43;;;;;;;3.00;2.80;;;17.00;99.90;;;;;;6152164;23;20088;-82
2023/06/22 00:06:09;;;;;;;3.63;2.85;;;17.00;99.90;;;;;;6152736;23;20009;-82
2023/06/22 00:08:34;;;;;;;3.38;2.65;;;17.00;99.90;;;;;;6177628;23;20338;-82
2023/06/22 00:11:00;;;;;;;3.78;3.22;;;17.00;99.90;;;;;;6154382;23;20009;-81
2023/06/22 00:13:26;;;;;;;3.13;2.83;;;16.90;99.90;;;;;;6154120;23;20032;-82
2023/06/22 00:15:51;;;;;;;4.47;3.40;;;17.00;99.90;;;;;;6179105;23;19997;-83
2023/06/22 00:18:17;;;;;;;3.55;3.25;;;17.00;99.90;;;;;;6179120;23;20008;-82
2023/06/22 00:20:42;;;;;;;4.07;3.30;;;16.90;99.90;;;;;;6154638;23;20125;-83
2023/06/22 00:23:08;;;;;;;3.55;3.25;;;16.90;99.90;;;;;;6153558;23;20037;-82
2023/06/22 00:25:39;;;;;;;4.45;3.42;;;16.90;99.90;;;;;;6152943;23;20025;-83
2023/06/22 00:28:05;;;;;;;3.20;2.90;;;16.80;99.90;;;;;;6153864;23;20084;-83
2023/06/22 00:30:32;;;;;;;3.88;3.50;;;16.80;99.90;;;;;;6153149;23;20014;-82
2023/06/22 00:32:58;;;;;;;6.38;3.95;;;16.80;99.90;;;;;;6152131;23;20465;-83
2023/06/22 00:35:28;;;;;;;3.35;3.05;;;16.80;99.90;;;;;;6152389;23;20009;-83
2023/06/22 00:38:00;;;;;;;4.20;3.35;;;16.80;99.90;;;;;;6153358;23;20006;-83
2023/06/22 00:40:29;;;;;;;5.30;3.33;;;16.70;99.90;;;;;;6145400;23;20068;-82
2023/06/22 00:42:55;;;;;;;5.45;3.90;;;16.70;99.90;;;;;;6153985;23;20012;-83
2023/06/22 00:45:23;;;;;;;4.80;2.92;;;16.70;99.90;;;;;;6152559;23;20001;-82
2023/06/22 00:47:52;;;;;;;4.65;3.30;;;16.70;99.90;;;;;;6153147;23;20005;-82
2023/06/22 00:50:21;;;;;;;4.18;3.08;;;16.70;99.90;;;;;;6153675;23;20450;-82
2023/06/22 00:52:58;;;;;;;3.38;3.08;;;16.70;99.90;;;;;;6153483;23;20016;-82
2023/06/22 00:55:25;;;;;;;3.28;2.88;;;16.70;99.90;;;;;;6151002;23;20009;-83
2023/06/22 00:57:55;;;;;;;3.88;3.58;;;16.70;99.90;;;;;;6150339;23;20009;-83
2023/06/22 01:00:22;;;;;;;4.00;3.28;;;16.70;99.90;;;;;;6149900;23;20096;-82
2023/06/22 01:02:51;;;;;;;4.18;3.50;;;16.70;99.90;;;;;;6151810;23;20009;-82
2023/06/22 01:05:19;;;;;;;4.43;3.20;;;16.60;99.90;;;;;;6176747;23;20457;-83
2023/06/22 01:08:03;;;;;;;4.07;3.67;;;16.60;99.90;;;;;;6155309;23;20010;-83
2023/06/22 01:10:37;;;;;;;3.63;3.20;;;16.60;99.90;;;;;;6153292;23;20065;-83
2023/06/22 01:13:16;;;;;;;4.47;3.65;;;16.60;99.90;;;;;;6155033;23;20514;-82
2023/06/22 01:15:56;;;;;;;3.42;3.13;;;16.60;99.90;;;;;;6152492;23;20006;-83
2023/06/22 01:18:25;;;;;;;4.47;3.17;;;16.60;99.90;;;;;;6153391;23;20335;-83
2023/06/22 01:20:53;;;;;;;4.00;3.22;;;16.60;99.90;;;;;;6178365;23;20345;-83
2023/06/22 01:23:56;;;;;;;4.30;3.40;;;16.60;99.90;;;;;;6153030;23;20009;-83
2023/06/22 01:26:45;;;;;;;3.88;3.47;;;16.60;99.90;;;;;;6154015;23;20351;-83
2023/06/22 01:29:14;;;;;;;4.85;3.25;;;16.60;99.90;;;;;;6159431;23;20009;-83
2023/06/22 01:31:41;;;;;;;4.53;3.95;;;16.60;99.90;;;;;;6149658;23;20022;-83
2023/06/22 01:34:09;;;;;;;3.70;3.35;;;16.60;99.90;;;;;;6151739;23;20637;-83
2023/06/22 01:36:36;;;;;;;4.85;3.78;;;16.60;99.90;;;;;;6152095;23;20076;-83
2023/06/22 01:39:04;;;;;;;4.10;3.75;;;16.60;99.90;;;;;;6153737;23;20093;-83
2023/06/22 01:41:34;;;;;;;3.95;3.55;;;16.60;99.90;;;;;;6152319;23;20009;-83
2023/06/22 01:44:01;;;;;;;5.72;3.92;;;16.50;99.90;;;;;;6151438;23;20021;-82
2023/06/22 01:46:27;;;;;;;4.30;3.83;;;16.50;99.90;;;;;;6153951;23;20009;-83
2023/06/22 01:48:53;;;;;;;3.47;3.17;;;16.50;99.90;;;;;;6152526;23;20010;-83
2023/06/22 01:51:19;;;;;;;3.47;3.17;;;16.50;99.90;;;;;;6151136;23;20013;-83
2023/06/22 01:53:45;;;;;;;6.10;4.30;;;16.50;99.90;;;;;;6157986;23;20002;-83
2023/06/22 01:56:11;;;;;;;3.70;3.33;;;16.50;99.90;;;;;;6157016;23;20014;-82
2023/06/22 01:58:44;;;;;;;3.85;3.35;;;16.50;99.90;;;;;;6171548;23;20029;-83
2023/06/22 02:01:11;;;;;;;4.97;4.35;;;16.40;99.90;;;;;;6196264;23;20010;-83
2023/06/22 02:03:43;;;;;;;3.92;3.55;;;16.50;99.90;;;;;;6166062;23;20009;-83
2023/06/22 02:06:17;;;;;;;4.05;3.65;;;16.50;99.90;;;;;;6155024;23;20009;-83
2023/06/22 02:08:53;;;;;;;5.50;3.72;;;16.40;99.90;;;;;;6155508;23;20032;-82
2023/06/22 02:11:21;;;;;;;4.60;3.80;;;16.40;99.90;;;;;;6179510;23;20281;-83
2023/06/22 02:13:48;;;;;;;4.53;3.60;;;16.40;99.90;;;;;;6155519;23;20085;-82
2023/06/22 02:16:15;;;;;;;4.40;3.38;;;16.40;99.90;;;;;;6154447;23;20028;-84
2023/06/22 02:18:51;;;;;;;3.67;3.35;;;16.40;99.90;;;;;;6156280;23;20006;-83
2023/06/22 02:21:18;;;;;;;4.68;3.63;;;16.40;99.90;;;;;;6158038;23;20001;-81
2023/06/22 02:23:43;;;;;;;4.18;2.97;;;16.40;99.90;;;;;;6154390;23;20072;-83
2023/06/22 02:26:09;;;;;;;4.47;3.90;;;16.40;99.90;;;;;;6155562;23;20439;-83
2023/06/22 02:28:35;;;;;;;4.30;3.78;;;16.30;99.90;;;;;;6157385;23;20076;-82
2023/06/22 02:31:00;;;;;;;4.18;3.78;;;16.40;99.90;;;;;;6154073;23;20040;-83
2023/06/22 02:33:27;;;;;;;3.70;3.40;;;16.40;99.90;;;;;;6154126;23;20446;-83
2023/06/22 02:35:53;;;;;;;4.47;3.88;;;16.40;99.90;;;;;;6177739;23;20084;-82
2023/06/22 02:38:19;;;;;;;5.40;3.75;;;16.40;99.90;;;;;;6154361;23;20395;-82
2023/06/22 02:40:45;;;;;;;5.57;4.60;;;16.40;99.90;;;;;;6153028;23;20012;-82
2023/06/22 02:43:10;;;;;;;5.55;4.95;;;16.40;99.90;;;;;;6153793;23;20010;-83
2023/06/22 02:45:36;;;;;;;6.72;4.80;;;16.40;99.90;;;;;;6153869;23;20359;-83
2023/06/22 02:48:01;;;;;;;4.28;3.80;;;16.40;99.90;;;;;;6155968;23;20088;-83
2023/06/22 02:50:27;;;;;;;5.63;3.63;;;16.40;99.90;;;;;;6156143;23;20001;-82
2023/06/22 02:52:52;;;;;;;5.63;4.35;;;16.40;99.90;;;;;;6168397;23;20016;-82
2023/06/22 02:55:18;;;;;;;5.72;4.68;;;16.40;99.90;;;;;;6153791;23;20021;-82
2023/06/22 02:57:44;;;;;;;5.93;4.63;;;16.40;99.90;;;;;;6153831;23;20063;-82
2023/06/22 03:00:17;;;;;;;5.35;4.85;;;16.40;99.90;;;;;;6177592;23;20068;-82
2023/06/22 03:02:46;;;;;;;5.65;5.00;;;16.30;99.90;;;;;;6152963;23;20512;-83
2023/06/22 03:05:13;;;;;;;5.82;5.07;;;16.30;99.90;;;;;;6153368;23;20621;-83
2023/06/22 03:07:42;;;;;;;8.13;5.97;;;16.30;99.90;;;;;;6158812;23;20002;-82
2023/06/22 03:10:12;;;;;;;6.55;5.90;;;16.30;99.90;;;;;;6153809;23;20002;-82
2023/06/22 03:12:38;;;;;;;7.70;6.88;;;16.30;99.90;;;;;;6151703;23;20005;-81
2023/06/22 03:15:06;;;;;;;7.25;6.55;;;16.20;99.90;;;;;;6149953;23;20064;-82
2023/06/22 03:17:32;;;;;;;7.72;6.57;;;16.20;99.90;;;;;;6151813;23;20048;-82
2023/06/22 03:19:57;;;;;;;7.97;6.82;;;16.20;99.90;;;;;;6151509;23;19998;-82
2023/06/22 03:22:23;;;;;;;8.35;7.25;;;16.20;99.90;;;;;;6150555;23;20002;-82
2023/06/22 03:24:48;;;;;;;6.75;6.15;;;16.20;99.90;;;;;;6149211;23;20394;-82
2023/06/22 03:27:14;;;;;;;6.07;5.57;;;16.20;99.90;;;;;;6153210;23;20057;-82
2023/06/22 03:29:39;;;;;;;7.47;6.72;;;16.20;99.90;;;;;;6150587;23;20339;-82
2023/06/22 03:32:06;;;;;;;7.18;6.47;;;16.20;99.90;;;;;;6174389;23;20017;-82
2023/06/22 03:34:34;;;;;;;7.07;6.40;;;16.20;99.90;;;;;;6152574;23;20031;-82
2023/06/22 03:36:59;;;;;;;7.35;6.38;;;16.20;99.90;;;;;;6151870;23;20088;-82
2023/06/22 03:39:25;;;;;;;7.18;6.05;;;16.20;99.90;;;;;;6150714;23;20411;-81
2023/06/22 03:41:50;;;;;;;7.15;6.22;;;16.20;99.90;;;;;;6151282;23;20430;-82
2023/06/22 03:44:16;;;;;;;8.32;6.32;;;16.20;99.90;;;;;;6147240;23;20312;-82
2023/06/22 03:46:41;;;;;;;7.30;5.75;;;16.20;99.90;;;;;;6152939;23;20009;-81
2023/06/22 03:49:07;;;;;;;6.40;5.78;;;16.20;99.90;;;;;;6174359;23;20020;-82
2023/06/22 03:51:33;;;;;;;6.60;5.72;;;16.30;99.90;;;;;;6151019;23;20120;-81
2023/06/22 03:53:58;;;;;;;6.40;5.75;;;16.20;99.90;;;;;;6149614;23;19998;-81
2023/06/22 03:56:24;;;;;;;7.60;6.57;;;16.30;99.90;;;;;;6175327;23;19998;-83
2023/06/22 03:58:49;;;;;;;8.38;6.53;;;16.30;99.90;;;;;;6150625;23;20040;-81
2023/06/22 04:01:16;;;;;;;6.97;6.28;;;16.40;99.90;;;;;;6174856;23;20014;-81
2023/06/22 04:03:42;;;;;;;8.68;7.03;;;16.40;99.90;;;;;;6150287;23;20093;-82
2023/06/22 04:06:08;;;;;;;7.28;6.57;;;16.40;99.90;;;;;;6151849;23;20097;-81
2023/06/22 04:08:33;;;;;;;6.63;5.95;;;16.50;99.90;;;;;;6150712;23;20008;-82
2023/06/22 04:10:59;;;;;;;7.60;6.20;;;16.50;99.90;;;;;;6152530;23;20087;-82
2023/06/22 04:13:24;;;;;;;6.85;6.15;;;16.60;99.90;;;;;;6150007;23;20092;-83
2023/06/22 04:15:50;;;;;;;8.18;5.85;;;16.60;99.90;;;;;;6151341;23;20015;-82
2023/06/22 04:18:16;;;;;;;5.70;5.20;;;16.70;99.90;;;;;;6152104;23;19997;-82
2023/06/22 04:20:41;;;;;;;5.90;5.30;;;16.80;99.90;;;;;;6150779;23;20093;-82
2023/06/22 04:23:07;;;;;;;6.50;5.57;;;16.80;99.90;;;;;;6149578;23;20002;-83
2023/06/22 04:25:32;;;;;;;6.15;5.55;;;16.90;99.90;;;;;;6150221;23;20033;-82
2023/06/22 04:27:58;;;;;;;5.90;5.30;;;16.90;99.90;;;;;;6151513;23;20029;-83
2023/06/22 04:30:24;;;;;;;8.82;5.15;;;16.90;99.90;;;;;;6151853;23;20077;-83
2023/06/22 04:32:56;;;;;;;5.50;4.93;;;17.00;99.90;;;;;;6151980;23;20338;-83
2023/06/22 04:35:22;;;;;;;5.05;4.15;;;17.00;99.90;;;;;;6149207;23;20020;-83
2023/06/22 04:37:49;;;;;;;4.93;4.38;;;17.10;99.90;;;;;;6176211;23;20399;-82
2023/06/22 04:40:15;;;;;;;5.85;4.45;;;17.10;99.90;;;;;;6176490;23;20088;-83
2023/06/22 04:42:53;;;;;;;5.75;4.40;;;17.10;99.90;;;;;;6152287;23;20021;-83
2023/06/22 04:45:19;;;;;;;4.07;3.67;;;17.20;99.90;;;;;;6152064;23;20300;-82
2023/06/22 04:47:45;;;;;;;4.03;3.42;;;17.20;99.90;;;;;;6156169;23;20005;-82
2023/06/22 04:50:14;;;;;;;5.22;4.60;;;17.30;99.90;;;;;;6152767;23;20009;-83
2023/06/22 04:52:40;;;;;;;9.35;4.57;;;17.30;99.90;;;;;;6150097;23;20486;-82
2023/06/22 04:55:06;;;;;;;7.57;4.03;;;17.40;99.90;;;;;;6150224;23;20002;-83
2023/06/22 04:57:32;;;;;;;5.22;4.13;;;17.40;99.90;;;;;;6152282;23;20005;-82
2023/06/22 05:00:01;;;;;;;4.45;4.05;;;17.50;99.90;;;;;;6150050;23;20442;-83
2023/06/22 05:02:32;;;;;;;4.80;4.35;;;17.50;99.90;;;;;;6120931;23;20021;-83
2023/06/22 05:04:59;;;;;;;4.28;3.28;;;17.60;99.90;;;;;;6144910;23;20065;-81
2023/06/22 05:07:25;;;;;;;3.92;3.30;;;17.60;99.90;;;;;;6145305;23;20006;-83
2023/06/22 05:09:51;;;;;;;5.13;4.07;;;17.70;99.90;;;;;;6122588;23;20360;-82
2023/06/22 05:12:16;;;;;;;5.32;4.05;;;17.70;99.90;;;;;;6126514;23;20421;-83
2023/06/22 05:14:42;;;;;;;4.22;3.50;;;17.80;99.90;;;;;;6124757;23;20049;-83
2023/06/22 05:17:13;;;;;;;5.57;4.07;;;17.80;99.90;;;;;;6121767;23;19998;-83
2023/06/22 05:19:39;;;;;;;5.25;4.03;;;17.90;99.90;;;;;;6121921;23;19994;-83
2023/06/22 05:22:06;;;;;;;4.53;3.38;;;17.90;99.90;;;;;;6121956;23;20030;-82
2023/06/22 05:24:31;;;;;;;4.85;3.80;;;17.90;99.90;;;;;;6121271;23;20002;-83
2023/06/22 05:26:57;;;;;;;4.03;3.05;;;18.00;99.90;;;;;;6122030;23;20008;-83
2023/06/22 05:29:23;;;;;;;4.68;3.35;;;18.10;99.90;;;;;;6120976;23;20010;-84
2023/06/22 05:31:49;;;;;;;4.47;3.22;;;18.10;99.90;;;;;;6142146;23;20640;-83
2023/06/22 05:34:14;;;;;;;4.75;3.55;;;18.20;99.90;;;;;;6150835;23;20087;-84
2023/06/22 05:36:40;;;;;;;4.30;3.60;;;18.20;99.90;;;;;;6151765;23;20427;-83
2023/06/22 05:39:13;;;;;;;4.32;3.35;;;18.30;99.90;;;;;;6174385;23;20282;-83
2023/06/22 05:41:39;;;;;;;5.13;3.20;;;18.40;99.90;;;;;;6149951;23;20013;-82
2023/06/22 05:44:04;;;;;;;4.53;3.30;;;18.50;99.90;;;;;;6148748;23;20005;-83
2023/06/22 05:46:30;;;;;;;3.42;2.78;;;18.50;99.90;;;;;;6149957;23;20248;-84
2023/06/22 05:48:56;;;;;;;5.00;2.85;;;18.60;99.90;;;;;;6155972;23;20005;-82
2023/06/22 05:51:21;;;;;;;5.03;2.85;;;18.70;99.90;;;;;;6151368;23;20009;-84
2023/06/22 05:53:49;;;;;;;3.90;3.20;;;18.90;99.90;;;;;;6152657;23;20048;-83
2023/06/22 05:56:15;;;;;;;5.32;2.75;;;18.90;99.90;;;;;;6153769;23;20009;-82
2023/06/22 05:58:41;;;;;;;3.05;2.22;;;18.90;99.90;;;;;;6151910;23;20006;-83
2023/06/22 06:01:06;;;;;;;2.95;2.40;;;18.90;99.90;;;;;;6153176;23;20148;-83
2023/06/22 06:03:32;;;;;;;2.75;2.33;;;18.90;99.90;;;;;;6151609;23;20005;-84
2023/06/22 06:05:57;;;;;;;2.45;2.22;;;19.10;99.90;;;;;;6150528;23;20005;-84
2023/06/22 06:08:23;;;;;;;2.50;1.88;;;19.30;99.90;;;;;;6152986;23;20443;-85
2023/06/22 06:10:49;;;;;;;2.92;1.85;;;19.30;99.90;;;;;;6154055;23;20006;-84
2023/06/22 06:13:14;;;;;;;2.67;2.10;;;19.40;99.90;;;;;;6152526;23;20010;-84
2023/06/22 06:15:40;;;;;;;2.50;2.08;;;19.60;99.90;;;;;;6152836;23;20323;-85
2023/06/22 06:18:06;;;;;;;3.08;2.60;;;19.70;99.90;;;;;;6153821;23;20347;-84
2023/06/22 06:20:32;;;;;;;2.58;2.08;;;19.70;99.90;;;;;;6157763;23;20009;-84
2023/06/22 06:22:58;;;;;;;5.07;2.15;;;19.80;99.90;;;;;;6159992;23;20419;-84
2023/06/22 06:25:23;;;;;;;2.60;2.17;;;19.80;99.90;;;;;;6159121;23;20144;-85
2023/06/22 06:27:51;;;;;;;2.55;2.30;;;19.90;99.90;;;;;;6154024;23;20009;-84
2023/06/22 06:30:19;;;;;;;2.65;1.95;;;20.00;99.90;;;;;;6153281;23;20006;-85
2023/06/22 06:32:46;;;;;;;3.20;1.88;;;20.20;99.90;;;;;;6153276;23;20020;-85
2023/06/22 06:35:13;;;;;;;2.58;1.90;;;20.20;99.90;;;;;;6151475;23;20084;-84
2023/06/22 06:37:41;;;;;;;3.92;2.42;;;20.20;99.90;;;;;;6153201;23;20006;-84
2023/06/22 06:40:11;;;;;;;2.80;1.73;;;20.20;99.90;;;;;;6153359;23;20008;-83
2023/06/22 06:42:44;;;;;;;2.20;1.88;;;20.20;99.90;;;;;;6152864;23;20021;-85
2023/06/22 06:45:22;;;;;;;3.45;1.95;;;20.20;99.90;;;;;;6153096;23;20056;-84
2023/06/22 06:47:48;;;;;;;2.40;1.77;;;20.20;99.90;;;;;;6154799;23;20455;-85
2023/06/22 06:50:17;;;;;;;2.58;1.90;;;20.20;99.90;;;;;;6152463;23;20010;-85
2023/06/22 06:52:43;;;;;;;2.15;1.90;;;20.40;99.90;;;;;;6151986;23;20593;-85
2023/06/22 06:55:12;;;;;;;4.60;2.17;;;20.50;99.90;;;;;;6154639;23;20548;-85
2023/06/22 06:57:39;;;;;;;2.45;2.20;;;20.60;99.90;;;;;;6152248;23;20091;-84
2023/06/22 07:00:11;;;;;;;4.88;2.60;;;20.60;99.90;;;;;;6152840;23;20002;-85
2023/06/22 07:02:39;;;;;;;1.92;1.77;;;20.60;99.90;;;;;;6152245;23;20430;-85
2023/06/22 07:05:05;;;;;;;3.42;2.20;;;20.60;99.90;;;;;;6153096;23;20025;-85
2023/06/22 07:07:31;;;;;;;2.17;1.95;;;20.60;99.90;;;;;;6152208;23;20016;-85
2023/06/22 07:09:57;;;;;;;2.90;2.30;;;20.80;99.90;;;;;;6151023;23;20478;-85
2023/06/22 07:12:22;;;;;;;2.75;2.55;;;20.90;99.90;;;;;;6153653;23;20002;-85
2023/06/22 07:14:48;;;;;;;2.42;2.22;;;21.10;99.90;;;;;;6176883;23;20005;-85
2023/06/22 07:17:14;;;;;;;3.45;2.10;;;21.40;99.90;;;;;;6152574;23;20006;-85
2023/06/22 07:19:40;;;;;;;2.15;1.95;;;21.60;99.90;;;;;;6151870;23;20460;-85
2023/06/22 07:22:05;;;;;;;2.60;2.28;;;21.80;99.90;;;;;;6149247;23;20014;-84
2023/06/22 07:24:32;;;;;;;3.70;2.35;;;22.00;99.90;;;;;;6175688;23;20013;-84
2023/06/22 07:26:58;;;;;;;3.40;2.10;;;22.10;99.90;;;;;;6150651;23;20088;-85
2023/06/22 07:29:24;;;;;;;4.90;1.92;;;22.30;99.90;;;;;;6152089;23;20036;-86
2023/06/22 07:31:56;;;;;;;3.03;2.00;;;22.30;99.90;;;;;;6150173;23;20022;-84
2023/06/22 07:34:22;;;;;;;3.28;2.33;;;22.40;99.90;;;;;;6152449;23;20006;-83
2023/06/22 07:36:47;;;;;;;3.55;2.20;;;22.50;99.90;;;;;;6153876;23;20085;-85
2023/06/22 07:39:14;;;;;;;3.00;2.30;;;22.70;99.90;;;;;;6152824;23;20021;-84
2023/06/22 07:41:43;;;;;;;2.97;2.60;;;22.80;99.90;;;;;;6151254;23;20006;-85
2023/06/22 07:44:08;;;;;;;2.63;2.15;;;23.00;99.90;;;;;;6149298;23;20017;-85
2023/06/22 07:46:34;;;;;;;2.65;2.10;;;23.10;99.90;;;;;;6152117;23;20014;-84
2023/06/22 07:49:01;;;;;;;2.45;2.25;;;23.30;99.90;;;;;;6151671;23;20016;-84
2023/06/22 07:51:26;;;;;;;3.20;2.53;;;23.30;99.90;;;;;;6177955;23;20013;-84
2023/06/22 07:53:52;;;;;;;3.00;2.72;;;23.10;99.90;;;;;;6153165;23;20001;-85
2023/06/22 07:56:18;;;;;;;3.28;2.20;;;23.10;99.90;;;;;;6154760;23;20002;-85
2023/06/22 07:58:45;;;;;;;2.72;1.88;;;23.10;99.90;;;;;;6153656;23;20006;-85
2023/06/22 08:01:11;;;;;;;2.33;2.13;;;23.10;99.90;;;;;;6153428;23;20018;-84
2023/06/22 08:03:37;;;;;;;2.30;1.58;;;23.00;99.90;;;;;;6157892;23;20029;-84
2023/06/22 08:06:03;;;;;;;3.22;1.90;;;23.00;99.90;;;;;;6152932;23;20001;-84
2023/06/22 08:08:29;;;;;;;2.58;2.30;;;23.00;99.90;;;;;;6151805;23;20025;-85
2023/06/22 08:10:54;;;;;;;3.72;2.30;;;23.00;99.90;;;;;;6151720;23;20001;-84
2023/06/22 08:13:20;;;;;;;2.60;2.03;;;23.10;99.90;;;;;;6150991;23;20395;-85
2023/06/22 08:15:46;;;;;;;1.98;1.70;;;23.00;99.90;;;;;;6151335;23;20010;-85
2023/06/22 08:18:11;;;;;;;3.85;2.45;;;23.10;99.90;;;;;;6150501;23;20009;-84
2023/06/22 08:20:37;;;;;;;2.35;2.15;;;23.20;99.90;;;;;;6153437;23;20033;-85
2023/06/22 08:23:05;;;;;;;4.97;2.38;;;23.30;99.90;;;;;;6151693;23;20009;-84
2023/06/22 08:25:32;;;;;;;1.90;1.80;;;23.40;99.90;;;;;;6150008;23;20009;-84
2023/06/22 08:27:58;;;;;;;2.47;1.70;;;23.40;99.90;;;;;;6152877;23;20012;-84
2023/06/22 08:30:23;;;;;;;2.30;2.10;;;23.50;99.90;;;;;;6176037;23;20006;-84
2023/06/22 08:32:49;;;;;;;2.80;1.80;;;23.60;99.90;;;;;;6152387;23;20099;-85
2023/06/22 08:35:15;;;;;;;2.03;1.90;;;23.70;99.90;;;;;;6149439;23;20012;-84
2023/06/22 08:37:40;;;;;;;3.45;2.10;;;23.90;99.90;;;;;;6151160;23;20009;-85
2023/06/22 08:40:09;;;;;;;2.63;2.20;;;23.90;99.90;;;;;;6151794;23;20029;-84
2023/06/22 08:42:40;;;;;;;1.73;1.63;;;24.00;99.90;;;;;;6152756;23;20005;-84
2023/06/22 08:45:06;;;;;;;1.70;1.52;;;24.10;99.90;;;;;;6151943;23;20013;-84
2023/06/22 08:47:32;;;;;;;4.80;2.38;;;24.30;99.90;;;;;;6151491;23;20036;-85
2023/06/22 08:49:57;;;;;;;2.75;1.90;;;24.50;99.90;;;;;;6151804;23;20012;-84
2023/06/22 08:52:23;;;;;;;2.90;2.05;;;24.70;99.70;;;;;;6156014;23;20088;-84
2023/06/22 08:54:49;;;;;;;2.88;2.13;;;25.00;99.50;;;;;;6165382;23;20005;-84
2023/06/22 08:57:15;;;;;;;3.35;2.10;;;25.20;98.30;;;;;;6151423;23;20002;-84
2023/06/22 08:59:41;;;;;;;1.70;1.50;;;25.20;97.40;;;;;;6151375;23;20005;-85
2023/06/22 09:02:07;;;;;;;2.33;1.67;;;25.40;97.60;;;;;;6148952;23;20307;-85
2023/06/22 09:04:34;;;;;;;2.05;1.85;;;25.50;98.50;;;;;;6149315;23;20033;-84
2023/06/22 09:07:03;;;;;;;1.40;1.30;;;25.70;97.40;;;;;;6152257;23;20056;-84
2023/06/22 09:09:28;;;;;;;2.55;1.85;;;25.90;96.90;;;;;;6148841;23;20005;-85
2023/06/22 09:11:54;;;;;;;3.03;1.98;;;26.00;96.30;;;;;;6151072;23;20009;-84
2023/06/22 09:14:20;;;;;;;1.77;1.65;;;26.10;95.40;;;;;;6150335;23;20064;-84
2023/06/22 09:16:45;;;;;;;1.95;1.63;;;26.10;95.20;;;;;;6150144;23;20040;-85
2023/06/22 09:19:11;;;;;;;2.83;2.33;;;26.10;96.10;;;;;;6147956;23;20025;-85
2023/06/22 09:21:37;;;;;;;2.55;1.77;;;26.10;96.30;;;;;;6150492;23;20006;-85
2023/06/22 09:24:03;;;;;;;2.15;1.92;;;26.10;96.10;;;;;;6148115;23;20009;-85
2023/06/22 09:26:29;;;;;;;2.72;2.30;;;26.20;95.10;;;;;;6153111;23;20026;-84
2023/06/22 09:28:54;;;;;;;2.22;1.70;;;26.30;94.90;;;;;;6153101;23;20005;-84
2023/06/22 09:31:25;;;;;;;2.80;1.83;;;26.40;94.50;;;;;;6152133;23;20013;-85
2023/06/22 09:33:54;;;;;;;2.10;1.88;;;26.50;95.40;;;;;;6152069;23;20009;-83
2023/06/22 09:36:21;;;;;;;2.13;1.92;;;26.60;94.70;;;;;;6154874;23;20006;-83
2023/06/22 09:38:47;;;;;;;1.80;1.40;;;26.70;94.20;;;;;;6153092;23;20012;-84
2023/06/22 09:41:12;;;;;;;2.50;1.75;;;26.80;93.80;;;;;;6152394;23;20363;-84
2023/06/22 09:43:38;;;;;;;2.72;1.77;;;26.80;94.40;;;;;;6152696;23;20005;-85
2023/06/22 09:46:03;;;;;;;2.63;1.60;;;26.80;94.10;;;;;;6152375;23;20005;-85
2023/06/22 09:48:30;;;;;;;2.67;1.95;;;26.80;94.40;;;;;;6151700;23;20096;-85
2023/06/22 09:50:56;;;;;;;1.85;1.70;;;26.70;93.80;;;;;;6152223;23;20076;-84
2023/06/22 09:53:21;;;;;;;4.75;1.92;;;26.70;94.40;;;;;;6152173;23;20590;-85
2023/06/22 09:55:47;;;;;;;2.05;1.85;;;26.80;94.50;;;;;;6152149;23;20017;-84
2023/06/22 09:58:13;;;;;;;2.08;1.83;;;26.90;94.10;;;;;;6152187;23;20012;-84
2023/06/22 10:00:38;;;;;;;3.58;2.00;;;27.00;94.50;;;;;;6151169;23;20359;-85
2023/06/22 10:03:04;;;;;;;2.78;1.90;;;27.10;94.60;;;;;;6176327;23;20096;-86
2023/06/22 10:05:29;;;;;;;4.22;2.42;;;27.10;93.80;;;;;;6151049;23;20006;-84
2023/06/22 10:07:55;;;;;;;2.45;2.10;;;27.10;92.70;;;;;;6177662;23;20061;-84
2023/06/22 10:10:20;;;;;;;3.30;1.90;;;26.90;93.30;;;;;;6152053;23;20044;-84
2023/06/22 10:12:48;;;;;;;2.15;2.00;;;26.90;93.70;;;;;;6152732;23;20010;-85
2023/06/22 10:15:14;;;;;;;2.25;1.98;;;27.10;93.20;;;;;;6153891;23;20490;-85
2023/06/22 10:17:39;;;;;;;3.97;2.53;;;27.10;93.70;;;;;;6154476;23;20284;-85
2023/06/22 10:20:11;;;;;;;2.58;2.38;;;27.30;93.50;;;;;;6152383;23;19998;-84
2023/06/22 10:22:38;;;;;;;3.88;2.17;;;27.00;92.40;;;;;;6152780;23;20005;-84
2023/06/22 10:25:03;;;;;;;3.13;2.55;;;26.70;93.40;;;;;;6153703;23;20017;-82
2023/06/22 10:27:29;;;;;;;3.20;1.90;;;26.40;92.90;;;;;;6152495;23;20001;-84
2023/06/22 10:29:54;;;;;;;2.03;1.83;;;26.30;94.00;;;;;;6177541;23;20001;-84
2023/06/22 10:32:20;;;;;;;2.97;2.20;;;26.40;94.10;;;;;;6176294;23;20013;-85
2023/06/22 10:34:45;;;;;;;2.55;2.35;;;26.40;94.30;;;;;;6153849;23;20048;-84
2023/06/22 10:37:11;;;;;;;2.65;2.45;;;26.70;93.90;;;;;;6156453;23;20045;-85
2023/06/22 10:39:37;;;;;;;3.90;2.15;;;26.80;93.80;;;;;;6157282;23;20002;-83
2023/06/22 10:42:02;;;;;;;2.63;2.33;;;26.80;93.70;;;;;;6157858;23;20001;-86
2023/06/22 10:44:28;;;;;;;5.07;2.80;;;26.80;94.30;;;;;;6152145;23;20430;-85
2023/06/22 10:46:53;;;;;;;2.38;2.17;;;26.80;93.90;;;;;;6154373;23;20005;-84
2023/06/22 10:49:19;;;;;;;3.85;2.90;;;26.80;94.50;;;;;;6153262;23;20380;-84
2023/06/22 10:51:45;;;;;;;3.08;2.47;;;26.70;93.20;;;;;;6151521;23;20398;-85
2023/06/22 10:54:13;;;;;;;3.60;2.33;;;26.50;93.90;;;;;;6151591;23;20458;-85
2023/06/22 10:56:39;;;;;;;2.95;2.08;;;26.60;94.20;;;;;;6152988;23;20081;-85
2023/06/22 10:59:05;;;;;;;3.55;2.10;;;26.60;94.20;;;;;;6152000;23;20006;-84
2023/06/22 11:01:31;;;;;;;2.83;2.58;;;26.60;94.10;;;;;;6152808;23;20013;-85
2023/06/22 11:03:57;;;;;;;2.92;2.35;;;26.70;94.30;;;;;;6152355;23;20080;-85
2023/06/22 11:06:23;;;;;;;3.45;2.58;;;26.80;94.30;;;;;;6152312;23;20095;-84
2023/06/22 11:08:48;;;;;;;2.42;2.22;;;26.90;94.60;;;;;;6155137;23;20379;-85
2023/06/22 11:11:17;;;;;;;4.15;2.80;;;26.90;94.00;;;;;;6152641;23;20375;-85
2023/06/22 11:13:42;;;;;;;2.50;2.30;;;27.10;94.30;;;;;;6154297;23;20005;-84
2023/06/22 11:16:08;;;;;;;2.63;2.20;;;27.20;94.40;;;;;;6150990;23;20029;-83
2023/06/22 11:18:33;;;;;;;2.60;2.40;;;27.20;93.80;;;;;;6154174;23;20010;-82
2023/06/22 11:20:59;;;;;;;4.07;3.53;;;27.00;93.70;;;;;;6155091;23;20085;-84
2023/06/22 11:23:26;;;;;;;3.03;2.38;;;26.70;93.00;;;;;;6154388;23;20001;-86
2023/06/22 11:25:51;;;;;;;3.08;2.72;;;26.60;94.00;;;;;;6152411;23;20017;-85
2023/06/22 11:28:17;;;;;;;3.63;3.00;;;26.70;94.50;;;;;;6156486;23;20013;-84
2023/06/22 11:30:42;;;;;;;3.78;3.03;;;26.90;94.50;;;;;;6156623;23;20014;-84
2023/06/22 11:33:08;;;;;;;2.60;2.40;;;27.00;93.60;;;;;;6155348;23;20014;-82
2023/06/22 11:35:34;;;;;;;4.30;2.50;;;27.20;94.10;;;;;;6155964;23;20001;-83
2023/06/22 11:37:59;;;;;;;2.83;2.63;;;27.30;93.80;;;;;;6177847;23;20012;-82
2023/06/22 11:40:25;;;;;;;3.80;2.50;;;27.40;93.60;;;;;;6154859;23;20021;-83
2023/06/22 11:42:51;;;;;;;4.50;3.30;;;27.50;93.80;;;;;;6155964;23;20009;-83
2023/06/22 11:45:17;;;;;;;2.65;2.45;;;27.50;93.40;;;;;;6152060;23;20005;-83
2023/06/22 11:47:43;;;;;;;2.50;2.30;;;27.50;93.80;;;;;;6152269;23;20434;-82
2023/06/22 11:50:09;;;;;;;4.03;2.90;;;27.60;93.70;;;;;;6152240;23;20073;-82
2023/06/22 11:52:36;;;;;;;3.55;2.83;;;27.60;93.30;;;;;;6153199;23;20029;-83
2023/06/22 11:55:03;;;;;;;3.40;3.10;;;27.60;92.90;;;;;;6151860;23;20073;-82
2023/06/22 11:57:29;;;;;;;4.10;3.17;;;27.60;92.80;;;;;;6154888;23;20024;-83
2023/06/22 11:59:55;;;;;;;3.55;2.92;;;27.60;93.20;;;;;;6152997;23;19997;-84
2023/06/22 12:02:20;;;;;;;4.47;3.30;;;27.60;93.10;;;;;;6152132;23;20398;-82
2023/06/22 12:04:46;;;;;;;3.47;3.03;;;27.70;93.10;;;;;;6177144;23;20096;-82
2023/06/22 12:07:12;;;;;;;3.97;3.03;;;27.70;92.90;;;;;;6155355;23;20033;-82
2023/06/22 12:09:37;;;;;;;3.35;2.88;;;27.60;93.40;;;;;;6153295;23;20005;-82
2023/06/22 12:12:03;;;;;;;2.85;2.65;;;27.60;93.50;;;;;;6157915;23;20010;-82
2023/06/22 12:14:29;;;;;;;3.28;3.08;;;27.60;93.70;;;;;;6151859;23;20009;-82
2023/06/22 12:16:55;;;;;;;3.45;3.10;;;27.80;93.50;;;;;;6152878;23;20398;-83
2023/06/22 12:19:20;;;;;;;2.75;2.55;;;28.00;92.70;;;;;;6152960;23;20430;-82
2023/06/22 12:21:46;;;;;;;2.65;2.45;;;28.10;92.30;;;;;;6151699;23;20005;-84
2023/06/22 12:24:11;;;;;;;3.38;2.58;;;28.10;92.40;;;;;;6149408;23;20009;-83
2023/06/22 12:26:37;;;;;;;4.50;3.28;;;28.10;92.90;;;;;;6150601;23;20005;-82
2023/06/22 12:29:02;;;;;;;3.90;3.42;;;28.20;92.50;;;;;;6152392;23;20033;-84
2023/06/22 12:31:28;;;;;;;3.35;3.00;;;28.10;92.20;;;;;;6151529;23;20324;-82
2023/06/22 12:33:54;;;;;;;3.58;3.28;;;28.00;92.00;;;;;;6152370;23;20001;-81
2023/06/22 12:36:19;;;;;;;3.88;2.70;;;27.90;92.30;;;;;;6149771;23;20045;-82
2023/06/22 12:38:45;;;;;;;3.22;2.92;;;27.80;92.60;;;;;;6152620;23;20008;-83
2023/06/22 12:41:10;;;;;;;3.72;3.20;;;27.70;92.70;;;;;;6153088;23;20442;-81
2023/06/22 12:43:36;;;;;;;3.47;3.17;;;27.60;92.90;;;;;;6150540;23;20457;-84
2023/06/22 12:46:01;;;;;;;3.95;3.03;;;27.60;92.60;;;;;;6153436;23;20018;-82